Time;durP1;ratioP1;P1;durP2;ratioP2;P2;SDS_P1;SDS_P2;PMS_P1;PMS_P2;Temp;Humidity;BMP_temperature;BMP_pressure;BME280_temperature;BME280_humidity;BME280_pressure;Samples;Min_cycle;Max_cycle;Signal;HPM_P1;HPM_P2
2022/05/06 00:02:07;;;;;;;24.73;18.17;;;9.40;99.90;;;;;;5035288;28;20508;-58
2022/05/06 00:04:33;;;;;;;21.48;17.05;;;9.40;99.90;;;;;;5037314;28;20044;-57
2022/05/06 00:07:00;;;;;;;24.92;18.70;;;9.30;99.90;;;;;;5032228;28;20040;-58
2022/05/06 00:09:26;;;;;;;25.08;17.67;;;9.30;99.90;;;;;;5014351;28;20052;-57
2022/05/06 00:11:52;;;;;;;24.45;18.10;;;9.20;99.90;;;;;;5029334;28;20057;-57
2022/05/06 00:14:19;;;;;;;20.83;17.38;;;9.20;99.90;;;;;;4983918;28;20049;-57
2022/05/06 00:16:45;;;;;;;26.50;19.25;;;9.30;99.90;;;;;;5034406;28;20055;-58
2022/05/06 00:19:12;;;;;;;23.02;18.80;;;9.20;99.90;;;;;;5035949;28;20331;-57
2022/05/06 00:21:39;;;;;;;25.00;19.42;;;9.20;99.90;;;;;;5035548;28;20056;-57
2022/05/06 00:24:05;;;;;;;23.05;17.77;;;9.20;99.90;;;;;;5017655;28;20084;-57
2022/05/06 00:26:32;;;;;;;23.33;18.15;;;9.20;99.90;;;;;;5028345;28;20525;-57
2022/05/06 00:28:58;;;;;;;22.35;18.40;;;9.20;99.90;;;;;;5024449;28;20053;-57
2022/05/06 00:31:24;;;;;;;25.20;20.30;;;9.20;99.90;;;;;;5012014;28;20141;-58
2022/05/06 00:33:50;;;;;;;24.75;18.85;;;9.20;99.90;;;;;;5032651;28;20041;-57
2022/05/06 00:36:17;;;;;;;27.30;19.08;;;9.10;99.90;;;;;;5027798;28;20053;-57
2022/05/06 00:38:43;;;;;;;25.55;19.48;;;9.10;99.90;;;;;;5010895;28;20497;-57
2022/05/06 00:41:09;;;;;;;23.27;19.38;;;9.10;99.90;;;;;;5030161;28;20049;-57
2022/05/06 00:43:40;;;;;;;27.25;21.00;;;9.10;99.90;;;;;;5026334;28;20057;-58
2022/05/06 00:46:17;;;;;;;28.30;21.05;;;9.10;99.90;;;;;;5030212;28;20041;-57
2022/05/06 00:48:46;;;;;;;25.83;18.73;;;9.00;99.90;;;;;;5027433;28;20137;-57
2022/05/06 00:51:13;;;;;;;30.75;20.42;;;9.00;99.90;;;;;;5025933;28;20084;-57
2022/05/06 00:53:40;;;;;;;28.77;21.50;;;9.00;99.90;;;;;;5010741;28;20045;-57
2022/05/06 00:56:11;;;;;;;29.58;21.77;;;9.00;99.90;;;;;;5033059;28;20040;-57
2022/05/06 00:58:38;;;;;;;31.43;22.13;;;9.00;99.90;;;;;;5024106;28;20041;-57
2022/05/06 01:01:05;;;;;;;26.25;21.10;;;8.90;99.90;;;;;;5028973;28;20072;-56
2022/05/06 01:03:32;;;;;;;32.13;21.00;;;8.90;99.90;;;;;;5027919;28;20040;-57
2022/05/06 01:06:02;;;;;;;27.73;20.98;;;8.90;99.90;;;;;;5032444;28;20102;-57
2022/05/06 01:08:29;;;;;;;28.60;19.13;;;8.90;99.90;;;;;;5031830;28;20045;-57
2022/05/06 01:10:57;;;;;;;25.55;19.08;;;8.80;99.90;;;;;;5027626;28;20060;-57
2022/05/06 01:13:24;;;;;;;31.75;20.85;;;8.80;99.90;;;;;;5010133;28;20053;-57
2022/05/06 01:15:55;;;;;;;25.20;19.88;;;8.70;99.90;;;;;;5012028;28;20126;-57
2022/05/06 01:18:25;;;;;;;24.55;19.65;;;8.70;99.90;;;;;;5053729;28;20131;-57
2022/05/06 01:20:58;;;;;;;25.20;19.05;;;8.70;99.90;;;;;;5004321;28;20056;-57
2022/05/06 01:23:24;;;;;;;25.35;19.50;;;8.70;99.90;;;;;;5040318;28;20454;-57
2022/05/06 01:25:51;;;;;;;26.63;19.92;;;8.60;99.90;;;;;;5045610;28;20107;-57
2022/05/06 01:28:21;;;;;;;27.42;21.38;;;8.60;99.90;;;;;;5032339;28;20074;-57
2022/05/06 01:30:48;;;;;;;26.60;20.10;;;8.60;99.90;;;;;;5031020;28;20861;-57
2022/05/06 01:33:21;;;;;;;29.27;20.52;;;8.50;99.90;;;;;;5038864;28;20125;-57
2022/05/06 01:35:57;;;;;;;29.30;22.48;;;8.40;99.90;;;;;;5032199;28;20581;-57
2022/05/06 01:38:50;;;;;;;30.08;22.05;;;8.40;99.90;;;;;;5027587;28;20068;-58
2022/05/06 01:41:31;;;;;;;26.35;20.50;;;8.30;99.90;;;;;;5025957;28;20130;-57
2022/05/06 01:44:14;;;;;;;28.30;20.63;;;8.30;99.90;;;;;;5026035;28;20841;-57
2022/05/06 01:46:41;;;;;;;29.23;21.98;;;8.20;99.90;;;;;;5040086;28;20041;-57
2022/05/06 01:49:14;;;;;;;;;;;8.20;99.90;;;;;;5034702;28;20046;-58
2022/05/06 01:51:42;;;;;;;28.42;19.92;;;8.20;99.90;;;;;;5014332;28;20019;-57
2022/05/06 01:54:12;;;;;;;28.00;20.67;;;8.20;99.90;;;;;;5040271;28;20068;-57
2022/05/06 01:56:43;;;;;;;28.02;20.23;;;8.20;99.90;;;;;;5008654;28;20063;-57
2022/05/06 01:59:09;;;;;;;27.10;22.13;;;8.10;99.90;;;;;;5030114;28;20048;-57
2022/05/06 02:01:36;;;;;;;31.38;21.13;;;8.10;99.90;;;;;;5008913;28;20056;-57
2022/05/06 02:06:49;;;;;;;28.02;20.55;;;8.10;99.90;;;;;;5028937;28;20146;-57
2022/05/06 02:09:20;;;;;;;27.67;21.00;;;8.10;99.90;;;;;;5015460;28;20114;-57
2022/05/06 02:11:54;;;;;;;25.90;20.95;;;8.10;99.90;;;;;;5036348;28;20052;-57
2022/05/06 02:14:25;;;;;;;28.33;19.95;;;8.00;99.90;;;;;;5027637;28;20049;-57
2022/05/06 02:17:21;;;;;;;27.20;18.83;;;8.00;99.90;;;;;;4985945;28;20045;-57
2022/05/06 02:20:02;;;;;;;27.08;20.35;;;8.00;99.90;;;;;;5018661;28;20587;-56
2022/05/06 02:22:35;;;;;;;27.15;21.23;;;7.90;99.90;;;;;;5021704;28;20168;-57
2022/05/06 02:25:19;;;;;;;26.38;19.38;;;7.90;99.90;;;;;;5031226;28;20110;-57
2022/05/06 02:27:54;;;;;;;24.38;16.55;;;7.90;99.90;;;;;;5030924;28;20065;-57
2022/05/06 02:33:15;;;;;;;26.75;18.95;;;7.70;99.90;;;;;;5037037;28;20083;-57
2022/05/06 02:35:54;;;;;;;23.45;19.33;;;7.70;99.90;;;;;;5008325;28;20110;-57
2022/05/06 02:38:27;;;;;;;29.60;19.08;;;7.70;99.90;;;;;;5012418;28;20707;-57
2022/05/06 02:40:55;;;;;;;25.88;20.15;;;7.70;99.90;;;;;;5008314;28;20127;-57
2022/05/06 02:43:22;;;;;;;25.65;19.58;;;7.60;99.90;;;;;;5030084;28;20407;-56
2022/05/06 02:45:52;;;;;;;25.95;20.42;;;7.60;99.90;;;;;;5035845;28;20492;-57
2022/05/06 02:48:19;;;;;;;25.35;19.55;;;7.60;99.90;;;;;;5029805;28;20053;-57
2022/05/06 02:50:47;;;;;;;28.35;20.75;;;7.60;99.90;;;;;;5012046;28;20073;-57
2022/05/06 02:53:13;;;;;;;28.65;21.63;;;7.60;99.90;;;;;;5026655;28;20572;-57
2022/05/06 02:55:39;;;;;;;27.90;19.60;;;7.50;99.90;;;;;;5024721;28;20362;-57
2022/05/06 02:58:09;;;;;;;29.67;20.40;;;7.50;99.90;;;;;;5028629;28;20119;-57
2022/05/06 03:00:36;;;;;;;27.23;20.55;;;7.50;99.90;;;;;;5033474;28;20045;-57
2022/05/06 03:03:05;;;;;;;34.00;21.30;;;7.40;99.90;;;;;;5040610;28;20053;-57
2022/05/06 03:05:34;;;;;;;27.88;20.88;;;7.40;99.90;;;;;;5018028;28;20037;-57
2022/05/06 03:08:02;;;;;;;25.02;19.75;;;7.30;99.90;;;;;;5034890;28;20049;-57
2022/05/06 03:10:31;;;;;;;30.83;20.52;;;7.20;99.90;;;;;;5017808;28;20590;-57
2022/05/06 03:12:58;;;;;;;33.25;21.02;;;7.20;99.90;;;;;;5030753;28;20056;-57
2022/05/06 03:15:26;;;;;;;30.02;21.67;;;7.20;99.90;;;;;;5025910;28;20049;-57
2022/05/06 03:18:07;;;;;;;28.30;20.02;;;7.20;99.90;;;;;;5047477;28;20514;-57
2022/05/06 03:20:33;;;;;;;30.40;21.58;;;7.20;99.90;;;;;;5032802;28;20571;-57
2022/05/06 03:22:59;;;;;;;31.08;23.42;;;7.20;99.90;;;;;;5006201;28;20052;-57
2022/05/06 03:25:26;;;;;;;33.40;22.05;;;7.20;99.90;;;;;;5024119;28;20045;-57
2022/05/06 03:27:59;;;;;;;34.67;23.40;;;7.20;99.90;;;;;;5026114;28;20468;-57
2022/05/06 03:30:27;;;;;;;30.50;23.20;;;7.20;99.90;;;;;;5009750;28;20442;-57
2022/05/06 03:32:59;;;;;;;31.70;22.80;;;7.20;99.90;;;;;;5025611;28;20299;-57
2022/05/06 03:35:28;;;;;;;35.22;24.55;;;7.10;99.90;;;;;;5049583;28;20077;-57
2022/05/06 03:37:54;;;;;;;32.88;23.38;;;7.10;99.90;;;;;;5010827;28;20600;-57
2022/05/06 03:40:21;;;;;;;30.35;22.70;;;7.00;99.90;;;;;;4981588;28;20094;-57
2022/05/06 03:42:47;;;;;;;33.33;23.35;;;6.90;99.90;;;;;;5035658;28;20041;-57
2022/05/06 03:45:14;;;;;;;27.90;22.40;;;6.90;99.90;;;;;;5029153;28;20077;-57
2022/05/06 03:47:42;;;;;;;34.75;23.35;;;6.90;99.90;;;;;;5033020;28;20071;-57
2022/05/06 03:52:56;;;;;;;34.25;22.38;;;6.90;99.90;;;;;;5017290;28;20062;-57
2022/05/06 03:55:23;;;;;;;34.05;23.52;;;6.90;99.90;;;;;;5016373;28;20045;-57
2022/05/06 03:57:51;;;;;;;34.15;21.80;;;6.90;99.90;;;;;;5006856;28;20077;-57
2022/05/06 04:00:20;;;;;;;34.50;23.83;;;6.90;99.90;;;;;;5035377;28;20405;-57
2022/05/06 04:02:54;;;;;;;31.92;23.90;;;6.90;99.90;;;;;;5031666;28;20114;-57
2022/05/06 04:05:25;;;;;;;35.83;24.77;;;7.00;99.90;;;;;;5006028;28;20613;-57
2022/05/06 04:18:17;;;;;;;31.58;20.55;;;6.80;99.90;;;;;;5029027;28;20519;-58
2022/05/06 04:23:34;;;;;;;31.33;22.00;;;6.80;99.90;;;;;;5033105;28;20045;-58
2022/05/06 04:26:11;;;;;;;32.35;21.92;;;6.80;99.90;;;;;;5016651;28;20859;-57
2022/05/06 04:28:41;;;;;;;30.98;20.90;;;6.80;99.90;;;;;;5022744;28;20140;-57
2022/05/06 04:31:08;;;;;;;27.58;20.98;;;6.80;99.90;;;;;;5027632;28;20889;-57
2022/05/06 04:33:39;;;;;;;31.30;21.13;;;6.90;99.90;;;;;;5021985;28;20054;-57
2022/05/06 04:36:09;;;;;;;26.95;20.40;;;6.90;99.90;;;;;;5038023;28;20076;-57
2022/05/06 04:38:36;;;;;;;29.33;20.48;;;6.90;99.90;;;;;;4999470;28;20045;-57
2022/05/06 04:41:04;;;;;;;31.27;23.13;;;7.00;99.90;;;;;;5011914;28;20132;-57
2022/05/06 04:43:34;;;;;;;25.83;20.30;;;7.00;99.90;;;;;;5022675;28;20049;-56
2022/05/06 04:46:01;;;;;;;30.48;23.35;;;7.00;99.90;;;;;;5008411;28;20052;-56
2022/05/06 04:48:29;;;;;;;28.67;22.27;;;7.10;99.90;;;;;;5005634;28;20057;-57
2022/05/06 04:50:58;;;;;;;31.55;21.60;;;7.10;99.90;;;;;;5031762;28;20598;-57
2022/05/06 04:53:25;;;;;;;36.70;23.55;;;7.20;99.90;;;;;;5012089;28;20076;-57
2022/05/06 04:55:54;;;;;;;30.63;21.58;;;7.20;99.90;;;;;;5032241;28;20044;-57
2022/05/06 04:58:29;;;;;;;26.90;19.60;;;7.20;99.90;;;;;;5021465;28;20052;-57
2022/05/06 05:00:57;;;;;;;24.38;19.27;;;7.20;99.90;;;;;;5019922;28;20044;-57
2022/05/06 05:03:23;;;;;;;26.08;20.73;;;7.30;99.90;;;;;;5022414;28;20049;-57
2022/05/06 05:05:52;;;;;;;28.30;20.20;;;7.30;99.90;;;;;;5036698;28;20044;-57
2022/05/06 05:08:19;;;;;;;28.92;22.02;;;7.50;99.90;;;;;;5013718;28;20516;-57
2022/05/06 05:10:49;;;;;;;26.50;20.45;;;7.60;99.90;;;;;;5034026;28;20141;-57
2022/05/06 05:13:15;;;;;;;26.23;19.65;;;7.70;99.90;;;;;;5039120;28;20046;-57
2022/05/06 05:15:41;;;;;;;25.35;17.55;;;7.80;99.90;;;;;;5014775;28;20112;-57
2022/05/06 05:18:09;;;;;;;19.67;15.63;;;7.80;99.90;;;;;;5019579;28;20053;-56
2022/05/06 05:20:35;;;;;;;35.55;22.17;;;7.90;99.90;;;;;;5009653;28;20565;-57
2022/05/06 05:23:02;;;;;;;51.00;28.08;;;7.90;99.90;;;;;;5005801;28;20063;-57
2022/05/06 05:25:29;;;;;;;92.15;33.67;;;7.90;99.90;;;;;;5022432;28;20119;-57
2022/05/06 05:27:59;;;;;;;58.45;33.55;;;8.00;99.90;;;;;;5024240;28;20402;-57
2022/05/06 05:30:32;;;;;;;67.22;32.60;;;8.10;99.90;;;;;;5037225;28;20045;-57
2022/05/06 05:33:01;;;;;;;81.15;35.25;;;8.10;99.90;;;;;;5041113;28;20048;-57
2022/05/06 05:35:29;;;;;;;58.17;31.63;;;8.20;99.90;;;;;;5019707;28;21514;-57
2022/05/06 05:38:00;;;;;;;52.45;30.48;;;8.40;99.90;;;;;;5024372;28;20055;-57
2022/05/06 05:40:27;;;;;;;47.58;27.38;;;8.50;99.90;;;;;;5011799;28;20045;-57
2022/05/06 05:42:54;;;;;;;53.28;26.75;;;8.60;99.90;;;;;;5029848;28;20191;-57
2022/05/06 05:48:20;;;;;;;56.30;23.88;;;8.80;99.90;;;;;;5040986;28;20048;-57
2022/05/06 05:50:49;;;;;;;45.33;23.60;;;8.80;99.90;;;;;;5025214;28;20064;-57
2022/05/06 05:53:21;;;;;;;40.13;22.08;;;8.90;99.90;;;;;;5032499;28;20127;-58
2022/05/06 05:55:48;;;;;;;43.10;20.67;;;9.00;99.90;;;;;;5032658;28;20037;-57
2022/05/06 05:58:18;;;;;;;36.92;22.05;;;9.10;99.90;;;;;;5018923;28;20049;-59
2022/05/06 06:00:48;;;;;;;27.48;20.65;;;9.20;99.90;;;;;;5036531;28;20409;-59
2022/05/06 06:03:16;;;;;;;48.67;23.58;;;9.30;99.90;;;;;;5016312;28;20690;-60
2022/05/06 06:05:44;;;;;;;95.65;85.28;;;9.30;99.90;;;;;;5015651;28;20128;-61
2022/05/06 06:08:11;;;;;;;55.05;25.17;;;9.50;99.90;;;;;;4994632;28;20045;-59
2022/05/06 06:10:39;;;;;;;56.50;25.65;;;9.60;99.90;;;;;;5040228;28;20046;-59
2022/05/06 06:13:09;;;;;;;82.57;26.05;;;9.70;99.90;;;;;;5041791;28;20048;-59
2022/05/06 06:15:39;;;;;;;33.47;25.23;;;9.90;99.90;;;;;;5006669;28;20072;-59
2022/05/06 06:18:06;;;;;;;37.50;24.02;;;10.10;99.90;;;;;;5033007;28;20540;-59
2022/05/06 06:20:32;;;;;;;30.50;21.00;;;10.10;99.90;;;;;;5022897;28;20033;-59
2022/05/06 06:22:58;;;;;;;33.30;23.17;;;10.10;99.90;;;;;;5027120;28;20054;-59
2022/05/06 06:25:26;;;;;;;41.38;20.90;;;10.20;99.90;;;;;;5039164;28;20437;-60
2022/05/06 06:27:55;;;;;;;31.15;20.38;;;10.20;99.90;;;;;;5051045;28;20779;-59
2022/05/06 06:30:23;;;;;;;37.45;20.85;;;10.30;99.90;;;;;;5007767;28;20081;-60
2022/05/06 06:32:52;;;;;;;67.18;49.95;;;10.30;99.90;;;;;;5022154;28;20049;-60
2022/05/06 06:35:21;;;;;;;34.08;24.17;;;10.40;99.90;;;;;;5027472;28;20049;-58
2022/05/06 06:37:52;;;;;;;35.08;23.33;;;10.60;99.90;;;;;;5002420;28;20538;-60
2022/05/06 06:40:21;;;;;;;46.25;26.25;;;10.70;99.90;;;;;;5011141;28;20045;-60
2022/05/06 06:42:48;;;;;;;35.67;22.48;;;10.70;99.90;;;;;;5011914;28;20045;-59
2022/05/06 06:45:24;;;;;;;46.22;24.08;;;10.70;99.90;;;;;;5025911;28;20045;-60
2022/05/06 06:47:59;;;;;;;;;;;10.80;99.90;;;;;;4999575;28;20057;-61
2022/05/06 06:50:39;;;;;;;52.90;27.53;;;10.90;99.90;;;;;;5028344;28;19927;-61
2022/05/06 06:53:17;;;;;;;58.03;30.23;;;10.80;99.90;;;;;;5032103;28;20387;-61
2022/05/06 06:55:43;;;;;;;42.72;28.52;;;10.90;99.90;;;;;;5032274;28;20122;-58
2022/05/06 06:58:09;;;;;;;40.63;27.20;;;11.00;99.90;;;;;;5032187;28;20453;-63
2022/05/06 07:00:36;;;;;;;62.40;32.55;;;11.10;99.90;;;;;;5021095;28;20611;-57
2022/05/06 07:03:04;;;;;;;45.55;31.73;;;11.10;99.90;;;;;;5031370;28;20053;-58
2022/05/06 07:05:30;;;;;;;41.45;30.33;;;11.10;99.90;;;;;;5016381;28;20040;-58
2022/05/06 07:13:29;;;;;;;43.88;33.53;;;11.40;99.90;;;;;;5034103;28;20045;-58
2022/05/06 07:15:55;;;;;;;54.60;33.13;;;11.30;99.90;;;;;;5036296;28;20495;-57
2022/05/06 07:18:21;;;;;;;44.88;32.67;;;11.40;99.90;;;;;;5027285;28;20131;-58
2022/05/06 07:20:48;;;;;;;50.05;35.08;;;11.40;99.90;;;;;;5022840;28;20522;-58
2022/05/06 07:23:14;;;;;;;46.25;35.10;;;11.50;99.90;;;;;;5006273;28;20045;-58
2022/05/06 07:25:40;;;;;;;43.88;33.80;;;11.50;99.90;;;;;;5032842;28;20052;-57
2022/05/06 07:28:07;;;;;;;44.10;34.85;;;11.70;99.90;;;;;;5037152;28;20072;-58
2022/05/06 07:30:34;;;;;;;45.80;34.67;;;11.70;99.90;;;;;;5021923;28;20525;-58
2022/05/06 07:33:00;;;;;;;43.15;34.10;;;12.00;99.90;;;;;;5031668;28;20045;-60
2022/05/06 07:35:26;;;;;;;42.60;34.00;;;12.10;99.90;;;;;;5022195;28;20389;-60
2022/05/06 07:37:53;;;;;;;42.08;33.47;;;12.20;99.90;;;;;;5015465;28;20052;-60
2022/05/06 07:40:19;;;;;;;38.60;30.65;;;12.30;99.90;;;;;;5031474;28;20041;-58
2022/05/06 07:42:47;;;;;;;40.30;32.63;;;12.40;99.90;;;;;;5031840;28;20044;-58
2022/05/06 07:45:13;;;;;;;36.40;29.80;;;12.40;99.90;;;;;;5025954;28;20628;-58
2022/05/06 07:47:39;;;;;;;38.55;29.67;;;12.50;99.90;;;;;;5040826;28;20373;-58
2022/05/06 07:50:06;;;;;;;34.78;28.70;;;12.60;99.90;;;;;;5008363;28;20135;-59
2022/05/06 07:52:32;;;;;;;34.83;27.30;;;12.60;99.90;;;;;;5020905;28;20053;-58
2022/05/06 07:54:58;;;;;;;37.53;28.63;;;12.70;99.90;;;;;;5041265;28;20092;-58
2022/05/06 07:57:24;;;;;;;35.38;28.65;;;12.80;99.90;;;;;;5042865;28;20483;-58
2022/05/06 07:59:50;;;;;;;37.05;29.05;;;12.90;99.90;;;;;;5039479;28;20584;-58
2022/05/06 08:05:01;;;;;;;38.22;28.30;;;13.20;99.90;;;;;;5022689;28;20046;-58
2022/05/06 08:07:27;;;;;;;37.22;29.40;;;13.40;99.90;;;;;;5030300;28;20475;-58
2022/05/06 08:09:53;;;;;;;36.08;29.50;;;13.40;99.90;;;;;;5042692;28;20791;-58
2022/05/06 08:12:19;;;;;;;35.00;29.63;;;13.50;99.90;;;;;;5039383;28;20052;-58
2022/05/06 08:14:45;;;;;;;35.92;29.30;;;13.80;99.90;;;;;;5027426;28;20131;-57
2022/05/06 08:17:11;;;;;;;27.67;23.23;;;14.00;99.90;;;;;;5040979;28;20040;-58
2022/05/06 08:19:37;;;;;;;27.17;24.23;;;14.00;99.90;;;;;;5036760;28;20539;-58
2022/05/06 08:22:05;;;;;;;26.52;22.52;;;14.10;99.90;;;;;;5040881;28;20041;-58
2022/05/06 08:24:31;;;;;;;26.50;21.15;;;14.30;99.90;;;;;;5036817;28;20045;-59
2022/05/06 08:26:57;;;;;;;24.52;19.25;;;14.40;99.90;;;;;;5037196;28;20072;-58
2022/05/06 08:29:23;;;;;;;24.67;20.58;;;14.60;99.90;;;;;;5027840;28;20528;-58
2022/05/06 08:31:50;;;;;;;26.00;20.55;;;14.90;99.90;;;;;;5024796;28;20037;-58
2022/05/06 08:34:17;;;;;;;23.25;20.00;;;15.30;99.90;;;;;;5008149;28;20095;-58
2022/05/06 08:36:44;;;;;;;18.85;16.85;;;15.50;99.90;;;;;;5034305;28;20123;-58
2022/05/06 08:39:11;;;;;;;21.73;18.15;;;15.50;99.90;;;;;;5037050;28;20045;-58
2022/05/06 08:41:39;;;;;;;18.02;15.27;;;15.50;99.90;;;;;;5028305;28;20057;-58
2022/05/06 08:52:40;;;;;;;15.18;12.93;;;17.00;99.90;;;;;;5033053;28;20124;-58
2022/05/06 08:55:06;;;;;;;13.10;11.73;;;17.40;99.90;;;;;;5032809;28;20134;-59
2022/05/06 08:57:33;;;;;;;14.98;13.38;;;17.40;99.90;;;;;;5019559;28;20127;-58
2022/05/06 08:59:59;;;;;;;14.35;12.85;;;17.50;99.90;;;;;;4991317;28;20106;-59
2022/05/06 09:02:26;;;;;;;13.23;11.77;;;17.40;99.90;;;;;;5043109;28;20049;-58
2022/05/06 09:04:52;;;;;;;11.95;10.77;;;17.90;99.90;;;;;;5043558;28;20053;-58
2022/05/06 09:07:21;;;;;;;12.77;11.48;;;18.20;99.90;;;;;;5017954;28;20050;-58
2022/05/06 09:10:10;;;;;;;12.55;11.25;;;18.50;99.90;;;;;;5030649;28;20131;-59
2022/05/06 09:12:42;;;;;;;14.07;11.50;;;18.50;99.90;;;;;;5024769;28;20053;-59
2022/05/06 09:17:56;;;;;;;10.77;9.55;;;19.20;99.90;;;;;;5025365;28;20069;-61
2022/05/06 09:20:23;;;;;;;11.43;10.25;;;19.40;99.90;;;;;;5026491;28;20138;-61
2022/05/06 09:22:53;;;;;;;10.65;8.73;;;19.90;99.90;;;;;;5027592;28;20049;-62
2022/05/06 09:25:38;;;;;;;9.88;8.88;;;20.20;99.90;;;;;;5044057;28;20045;-62
2022/05/06 09:28:07;;;;;;;10.77;9.68;;;20.20;99.90;;;;;;5044893;28;20513;-58
2022/05/06 09:30:34;;;;;;;10.50;9.32;;;20.60;99.90;;;;;;5031707;28;20402;-59
2022/05/06 09:33:00;;;;;;;12.63;9.63;;;20.50;99.90;;;;;;5024651;28;20114;-59
2022/05/06 09:35:28;;;;;;;10.63;9.52;;;20.80;99.90;;;;;;5043364;28;20041;-58
2022/05/06 09:37:54;;;;;;;10.00;9.00;;;20.90;99.90;;;;;;5033455;28;20056;-61
2022/05/06 09:40:31;;;;;;;11.93;8.88;;;21.10;99.90;;;;;;5035343;28;20130;-63
2022/05/06 09:42:59;;;;;;;10.77;9.10;;;21.10;99.90;;;;;;5038488;28;20443;-61
2022/05/06 09:45:29;;;;;;;10.68;9.57;;;20.70;99.90;;;;;;5030180;28;20049;-61
2022/05/06 09:48:00;;;;;;;10.68;9.52;;;21.00;99.90;;;;;;5013496;28;20080;-61
2022/05/06 09:50:31;;;;;;;;;;;21.20;99.90;;;;;;5032989;28;20049;-61
2022/05/06 09:53:02;;;;;;;12.43;9.57;;;21.30;99.90;;;;;;5017314;28;19920;-61
2022/05/06 09:55:30;;;;;;;12.23;10.05;;;21.50;99.90;;;;;;5028239;28;20535;-60
2022/05/06 09:57:58;;;;;;;10.23;9.10;;;21.50;99.90;;;;;;5026515;28;20049;-58
2022/05/06 10:00:24;;;;;;;15.25;10.00;;;21.30;99.90;;;;;;5001016;28;20044;-58
2022/05/06 10:02:50;;;;;;;10.00;8.93;;;21.50;99.90;;;;;;5034880;28;20037;-58
2022/05/06 10:05:16;;;;;;;8.95;7.05;;;21.60;99.90;;;;;;5035030;28;20041;-59
2022/05/06 10:07:46;;;;;;;7.20;6.40;;;21.80;99.90;;;;;;5029666;28;20072;-58
2022/05/06 10:10:28;;;;;;;6.72;5.53;;;22.10;99.90;;;;;;5015868;28;20408;-58
2022/05/06 10:13:03;;;;;;;5.93;5.30;;;22.20;99.90;;;;;;5029139;28;20549;-58
2022/05/06 10:15:32;;;;;;;6.28;5.68;;;22.10;99.90;;;;;;5034070;28;20056;-58
2022/05/06 10:17:59;;;;;;;7.15;6.45;;;22.40;99.90;;;;;;5033888;28;20056;-58
2022/05/06 10:20:38;;;;;;;7.85;6.15;;;22.50;99.90;;;;;;5035296;28;20106;-58
2022/05/06 10:23:11;;;;;;;6.20;5.60;;;23.20;99.90;;;;;;5024534;28;20048;-59
2022/05/06 10:25:40;;;;;;;6.68;4.85;;;23.50;99.90;;;;;;5038362;28;20052;-59
2022/05/06 10:34:10;;;;;;;7.53;5.20;;;24.20;99.90;;;;;;5028713;28;20783;-56
2022/05/06 10:36:46;;;;;;;6.90;5.97;;;24.30;98.70;;;;;;5027719;28;20084;-59
2022/05/06 10:39:25;;;;;;;20.15;18.30;;;23.80;99.00;;;;;;5030687;28;20319;-59
2022/05/06 10:42:18;;;;;;;6.90;6.07;;;23.10;98.10;;;;;;5022345;28;20093;-57
2022/05/06 10:44:50;;;;;;;6.72;5.70;;;24.00;94.80;;;;;;5052104;28;20051;-57
2022/05/06 10:47:19;;;;;;;6.30;5.70;;;24.30;95.80;;;;;;5029211;28;20099;-57
2022/05/06 10:49:46;;;;;;;6.65;5.95;;;23.70;95.00;;;;;;5040648;28;20053;-57
2022/05/06 10:52:15;;;;;;;5.38;4.80;;;23.80;96.20;;;;;;5037862;28;20472;-57
2022/05/06 10:54:43;;;;;;;5.43;4.93;;;23.90;93.30;;;;;;5012355;28;20068;-58
2022/05/06 10:57:09;;;;;;;6.88;5.57;;;23.50;94.10;;;;;;5035909;28;20080;-57
2022/05/06 10:59:49;;;;;;;6.35;5.55;;;23.10;95.20;;;;;;5040752;28;20049;-57
2022/05/06 11:02:16;;;;;;;6.07;5.47;;;23.60;93.70;;;;;;5012399;28;20392;-57
2022/05/06 11:04:53;;;;;;;5.30;4.80;;;23.50;94.90;;;;;;5042480;28;20123;-57
2022/05/06 11:07:20;;;;;;;8.02;6.90;;;23.90;92.20;;;;;;5032445;28;20055;-56
2022/05/06 11:09:47;;;;;;;7.55;5.43;;;24.00;92.50;;;;;;5010214;28;20381;-57
2022/05/06 11:12:29;;;;;;;5.47;4.45;;;24.20;91.40;;;;;;5029519;28;20579;-57
2022/05/06 11:14:56;;;;;;;4.95;3.28;;;24.40;87.30;;;;;;5032035;28;20060;-57
2022/05/06 11:17:24;;;;;;;3.88;3.47;;;24.30;89.60;;;;;;5031075;28;20044;-56
2022/05/06 11:19:51;;;;;;;5.53;3.97;;;24.70;87.90;;;;;;4996596;28;20056;-57
2022/05/06 11:22:17;;;;;;;4.55;4.05;;;24.20;86.00;;;;;;5051615;28;20037;-56
2022/05/06 11:24:43;;;;;;;7.10;4.22;;;24.50;88.20;;;;;;4998138;28;20060;-56
2022/05/06 11:27:20;;;;;;;6.78;5.28;;;24.20;89.40;;;;;;5007989;28;20056;-56
2022/05/06 11:29:52;;;;;;;5.82;4.20;;;23.70;85.50;;;;;;5033577;28;20369;-56
2022/05/06 11:32:19;;;;;;;4.65;4.13;;;23.90;87.40;;;;;;5028326;28;20134;-56
2022/05/06 11:35:02;;;;;;;9.40;4.97;;;24.40;86.50;;;;;;5027155;28;20059;-56
2022/05/06 11:37:31;;;;;;;5.68;4.65;;;24.30;84.20;;;;;;5025560;28;20052;-57
2022/05/06 11:42:42;;;;;;;5.55;5.05;;;23.90;82.50;;;;;;5031590;28;20041;-57
2022/05/06 11:48:09;;;;;;;6.30;4.57;;;24.50;81.10;;;;;;5029249;28;20399;-56
2022/05/06 11:50:36;;;;;;;5.80;4.47;;;25.00;80.00;;;;;;5000752;28;20132;-57
2022/05/06 11:53:05;;;;;;;4.93;3.97;;;25.30;75.70;;;;;;5027785;28;20130;-56
2022/05/06 11:55:32;;;;;;;5.85;4.18;;;25.60;73.50;;;;;;5029252;28;20045;-56
2022/05/06 11:57:58;;;;;;;5.82;3.80;;;25.50;67.30;;;;;;5025805;28;20055;-57
2022/05/06 12:00:25;;;;;;;6.10;3.83;;;25.40;65.80;;;;;;5025348;28;20053;-58
2022/05/06 12:02:53;;;;;;;4.50;2.70;;;25.40;68.30;;;;;;5013017;28;20091;-56
2022/05/06 12:05:20;;;;;;;4.43;3.20;;;25.90;65.50;;;;;;5028992;28;20060;-56
2022/05/06 12:07:48;;;;;;;4.55;2.80;;;26.20;55.70;;;;;;5032978;28;20044;-56
2022/05/06 12:10:25;;;;;;;3.83;2.60;;;26.20;56.10;;;;;;5031488;28;20052;-56
2022/05/06 12:12:59;;;;;;;3.10;2.13;;;26.00;53.60;;;;;;5030058;28;20153;-57
2022/05/06 12:16:03;;;;;;;2.55;1.80;;;25.50;55.20;;;;;;5031467;28;20129;-56
2022/05/06 12:18:29;;;;;;;3.08;1.38;;;25.80;54.50;;;;;;5020660;28;20056;-57
2022/05/06 12:20:56;;;;;;;2.92;1.50;;;25.20;51.30;;;;;;5030544;28;20059;-57
2022/05/06 12:23:30;;;;;;;4.22;1.27;;;25.10;51.00;;;;;;5033063;28;20037;-57
2022/05/06 12:25:57;;;;;;;3.17;1.55;;;24.90;50.20;;;;;;5016726;28;20056;-57
2022/05/06 12:28:23;;;;;;;3.70;1.25;;;25.50;50.90;;;;;;5025340;28;20251;-58
2022/05/06 12:30:57;;;;;;;3.15;1.33;;;25.90;50.90;;;;;;5029216;28;20040;-58
2022/05/06 12:33:39;;;;;;;4.05;2.22;;;26.50;48.40;;;;;;5025904;28;20618;-56
2022/05/06 12:36:06;;;;;;;3.58;1.48;;;26.40;47.80;;;;;;5022697;28;20037;-56
2022/05/06 12:38:38;;;;;;;3.03;1.25;;;26.20;48.60;;;;;;5028651;28;20052;-58
2022/05/06 12:41:22;;;;;;;4.47;1.60;;;26.60;46.20;;;;;;5033027;28;20041;-56
2022/05/06 12:43:49;;;;;;;3.55;1.70;;;26.40;46.40;;;;;;5028592;28;20491;-56
2022/05/06 12:46:28;;;;;;;4.32;2.75;;;26.60;47.80;;;;;;5029830;28;20346;-57
2022/05/06 12:51:42;;;;;;;3.28;1.77;;;26.60;47.40;;;;;;5031248;28;20079;-56
2022/05/06 12:54:12;;;;;;;4.00;2.10;;;26.90;48.20;;;;;;5029281;28;20508;-56
2022/05/06 12:56:41;;;;;;;4.43;2.30;;;26.50;49.20;;;;;;5026927;28;20080;-57
2022/05/06 12:59:08;;;;;;;5.53;2.08;;;27.30;49.40;;;;;;5032250;28;20048;-56
2022/05/06 13:01:35;;;;;;;2.55;1.90;;;26.80;47.40;;;;;;5026412;28;20481;-57
2022/05/06 13:04:01;;;;;;;4.50;2.05;;;27.40;47.50;;;;;;5025716;28;20640;-56
2022/05/06 13:06:31;;;;;;;3.65;1.95;;;27.60;47.20;;;;;;5026217;28;20068;-56
2022/05/06 13:08:57;;;;;;;5.35;2.90;;;27.30;46.20;;;;;;5024835;28;20052;-56
2022/05/06 13:11:23;;;;;;;3.88;2.72;;;27.50;46.40;;;;;;5028556;28;20455;-56
2022/05/06 13:13:49;;;;;;;4.38;2.55;;;27.00;47.50;;;;;;5025600;28;20548;-56
2022/05/06 13:16:15;;;;;;;4.25;3.05;;;27.20;47.70;;;;;;5026037;28;20319;-56
2022/05/06 13:18:41;;;;;;;7.38;2.83;;;26.80;47.40;;;;;;5023791;28;20048;-56
2022/05/06 13:21:08;;;;;;;4.25;2.95;;;25.90;49.00;;;;;;5030381;28;20073;-56
2022/05/06 13:23:34;;;;;;;5.18;3.00;;;25.70;50.40;;;;;;5029996;28;22194;-56
2022/05/06 13:26:02;;;;;;;5.22;3.60;;;25.50;50.90;;;;;;5010042;28;20057;-55
2022/05/06 13:28:28;;;;;;;5.45;3.13;;;25.10;52.40;;;;;;5012732;28;20045;-55
2022/05/06 13:30:54;;;;;;;6.03;2.38;;;25.40;52.70;;;;;;5026493;28;20168;-56
2022/05/06 13:33:20;;;;;;;2.30;1.70;;;26.40;50.70;;;;;;5028208;28;20401;-56
2022/05/06 13:35:46;;;;;;;4.35;1.90;;;26.50;48.90;;;;;;5026743;28;20047;-56
2022/05/06 13:38:12;;;;;;;5.40;1.90;;;27.10;48.00;;;;;;5030777;28;20119;-55
2022/05/06 13:40:38;;;;;;;6.80;2.42;;;27.90;47.20;;;;;;5029401;28;20055;-56
2022/05/06 13:43:05;;;;;;;4.63;2.67;;;27.70;46.50;;;;;;5026017;28;20049;-56
2022/05/06 13:45:31;;;;;;;4.68;1.98;;;26.70;47.10;;;;;;5041692;28;20049;-56
2022/05/06 13:47:57;;;;;;;5.60;2.50;;;27.60;47.40;;;;;;5044510;28;20053;-56